Airfield :
LOGIN :

Register | Disclaimer

   EN    FR    IT 

 










Legend :    VFR   Marginal VFR   IFR   Intensive IFR   Very Intensive IFR
Visi :
Ceiling :
>= 8 km
>= 3000ft
5 to 8 km
1000 to 3000 ft
1500m to 5 km
500 to 1000 ft
800 to 1500m
200 to 500 ft
< 800m
< 200 ft
Symbols :   Thunderstorms  Fog  Heavy snow  Heavy precipitations  Wind > 20 kt
SIGMETs :     Misc.  Thunderstorms  Icing  Turbulence  Mountain Waves  Volcanic Ashes






- Airport Elevation : 17 ft
- IATA code : CPH


EKCH - København - Kastrup (Copenhagen)

CURRENT METAR :
  • 231820Z 26004KT 8000 SCT005 BKN025 14/13 Q1014 TEMPO BKN004

EXPIRED METARs :
  • 231750Z 22005KT 4000 -DZRA FEW002 BKN004 14/13 Q1014 BECMG 8000 BKN008
  • 231720Z 19007KT 7000 -DZRA BKN004 13/13 Q1014 TEMPO 4000 BECMG BKN008
  • 231650Z 19007KT 9999 FEW004 BKN008 14/13 Q1014 TEMPO 4000 SHRA SCT040CB
  • 231620Z 17007KT 8000 BKN005 14/13 Q1014 TEMPO 2500 SHRA BKN004 SCT040CB
  • 231550Z 15007KT 4000 -RA BKN005 14/14 Q1013 TEMPO 2500 SHRA BKN004 SCT040CB
  • 231520Z 16006KT 4000 -RA SCT007 BKN020 14/13 Q1013 RERA TEMPO 8000 -SHRA BKN005 SCT040CB
  • 231450Z 16006KT 5000 -RA SCT008 BKN020 14/13 Q1013 BECMG 3000 SHRA BKN008 SCT040CB
  • 231420Z 17008KT 120V200 5000 -RA SCT008 BKN020 14/13 Q1013 BECMG 3000 SHRA BKN008 SCT040CB
  • 231350Z 10005KT 6000 -RA FEW030 BKN050 17/15 Q1012 RERA TEMPO 3000 SHRA BKN008 SCT040CB

TAF TAF EKCH
Valid from the 23 at 18:00 until the 24 at 18:00 UTC


231715Z 2318/2418 19008KT 4000 RA BKN004 SCT040CB
BECMG 2318/2320 27008KT 9999 NSW BKN020
TEMPO 2320/2407 BKN008



MET'MAP, your aeronautical weather chart ! - Copyright ORBIFLY December 2007 - Disclaimer

ORBIFLY MET'MAP TEAM :

Programming & Development : Alexandra Zaïnal
Original concept : Baudouin d'Aumeries
Technical & hardware support : Manuel Goepfert
Assistance : Marc-Olivier Méhu




SOURCES & CREDITS :

   NOAA